Language: 


Des rapports , des résumés tant et plus, au choix de chacun....


Données Historiques de Météogheer
Journalier Rapport pour Mars 16, 2017 Unitée:  Impériale    Métrique   Les deux
Suivant Jour »
Journalier Hebdomadaire Mensuel Annuel Sur mesure
  Max: Min: Moyenne:
Température: 67.6 °F 36.9 °F 51.8 °F
Point de rosée: 55.9 °F 36.3 °F 44.2 °F
Humidité: 98% 47% 78%
Vent: 10.1mph 0mph 2.4mph
Rafales: 12.3mph - -
Vent- - SSW
Pression: 30.4 in 30 in -
Pluie: 0 in    
Historical Graphs
 
 
Données tabulaires pour Mars 16, 2017
Heure Température Point de rosée Pression Vent Vent Rafales Humidité Pluie Taux (Horaire) Conditions
00:02 42.4 °F 40.3 °F 30.4 in Calm     92% 0 in
00:07 42.3 °F 40.1 °F 30.4 in Calm     92% 0 in
00:12 42.3 °F 40.1 °F 30.4 in Calm     92% 0 in
00:17 42.3 °F 40.5 °F 30.4 in Calm     93% 0 in
00:22 42.1 °F 40.3 °F 30.4 in Calm     93% 0 in
00:27 41.9 °F 39.9 °F 30.4 in Calm     93% 0 in
00:32 41.9 °F 39.9 °F 30.4 in Calm     93% 0 in
00:37 41.9 °F 39.9 °F 30.4 in Calm     93% 0 in
00:42 41.7 °F 40.1 °F 30.4 in Calm     94% 0 in
00:47 41.5 °F 39.9 °F 30.4 in Calm     94% 0 in
00:53 41.5 °F 39.9 °F 30.4 in WNW 0.9 mph 2.5 mph 94% 0 in
00:58 41.7 °F 40.1 °F 30.4 in Calm   2.5 mph 94% 0 in
01:03 41.5 °F 39.9 °F 30.4 in Calm   1.6 mph 94% 0 in
01:08 41.4 °F 39.7 °F 30.4 in Calm   1.3 mph 94% 0 in
01:13 41.2 °F 39.6 °F 30.4 in Calm   1.3 mph 94% 0 in
01:18 41.2 °F 39.6 °F 30.4 in Calm   1.1 mph 94% 0 in
01:23 41.2 °F 39.7 °F 30.4 in Calm   1.1 mph 95% 0 in
01:28 41 °F 39.7 °F 30.4 in WNW 2 mph 2.2 mph 95% 0 in
01:33 40.8 °F 39.6 °F 30.4 in WNW 2.2 mph 2.5 mph 95% 0 in
01:38 40.8 °F 39.6 °F 30.4 in Calm   2.5 mph 95% 0 in
01:43 41 °F 39.7 °F 30.4 in Calm   2.2 mph 95% 0 in
01:48 40.8 °F 39.6 °F 30.4 in Calm     95% 0 in
01:53 40.5 °F 39.4 °F 30.4 in Calm     96% 0 in
01:58 40.5 °F 39.4 °F 30.4 in Calm     96% 0 in
02:03 40.5 °F 39.4 °F 30.4 in Calm     96% 0 in
02:08 40.5 °F 39.4 °F 30.4 in Calm     96% 0 in
02:13 40.3 °F 39.2 °F 30.4 in Calm     96% 0 in
02:18 40.3 °F 39.2 °F 30.4 in Calm     96% 0 in
02:23 40.3 °F 39.2 °F 30.3 in Calm     96% 0 in
02:28 40.3 °F 39.2 °F 30.3 in Calm     96% 0 in
02:33 40.3 °F 39.2 °F 30.3 in Calm     96% 0 in
02:38 40.3 °F 39.6 °F 30.3 in Calm     97% 0 in
02:43 40.5 °F 39.7 °F 30.3 in Calm     97% 0 in
02:48 40.5 °F 39.7 °F 30.3 in Calm     97% 0 in
02:53 40.6 °F 39.9 °F 30.3 in Calm     97% 0 in
02:58 40.5 °F 39.7 °F 30.3 in Calm     97% 0 in
03:03 40.3 °F 39.6 °F 30.3 in Calm     97% 0 in
03:08 40.1 °F 39.4 °F 30.3 in Calm     97% 0 in
03:13 39.7 °F 39 °F 30.3 in Calm     97% 0 in
03:18 39.7 °F 39 °F 30.3 in Calm     97% 0 in
03:23 39.7 °F 39 °F 30.3 in Calm     97% 0 in
03:28 39.6 °F 38.8 °F 30.3 in Calm     97% 0 in
03:33 39.6 °F 38.8 °F 30.3 in Calm     97% 0 in
03:38 39.4 °F 38.7 °F 30.4 in Calm     97% 0 in
03:43 39.2 °F 38.5 °F 30.4 in Calm     97% 0 in
03:48 39 °F 38.3 °F 30.4 in Calm     97% 0 in
03:53 39 °F 38.3 °F 30.3 in Calm     97% 0 in
03:58 39 °F 38.3 °F 30.3 in Calm     97% 0 in
04:03 39 °F 38.3 °F 30.3 in Calm     97% 0 in
04:08 38.8 °F 38.5 °F 30.3 in Calm     98% 0 in
04:13 38.8 °F 38.5 °F 30.3 in Calm     98% 0 in
04:19 38.7 °F 38.1 °F 30.3 in Calm     98% 0 in
04:24 38.7 °F 38.1 °F 30.3 in Calm     98% 0 in
04:29 38.7 °F 38.1 °F 30.3 in Calm     98% 0 in
04:34 38.7 °F 38.1 °F 30.3 in Calm     98% 0 in
04:39 38.8 °F 38.5 °F 30.3 in Calm     98% 0 in
04:44 39 °F 38.5 °F 30.3 in Calm     98% 0 in
04:49 39.2 °F 38.7 °F 30.3 in Calm     98% 0 in
04:54 39.2 °F 38.7 °F 30.3 in Calm     98% 0 in
04:59 39.4 °F 38.8 °F 30.3 in Calm     98% 0 in
05:04 39.2 °F 38.7 °F 30.3 in Calm     98% 0 in
05:09 39.2 °F 38.7 °F 30.3 in Calm     98% 0 in
05:14 39.2 °F 38.7 °F 30.3 in Calm     98% 0 in
05:19 39.2 °F 38.7 °F 30.3 in Calm     98% 0 in
05:24 39.2 °F 38.7 °F 30.3 in Calm     98% 0 in
05:29 39.2 °F 38.7 °F 30.3 in Calm     98% 0 in
05:34 39.4 °F 38.8 °F 30.3 in Calm     98% 0 in
05:39 39.2 °F 38.7 °F 30.3 in Calm     98% 0 in
05:44 39.2 °F 38.7 °F 30.3 in Calm     98% 0 in
05:49 39.2 °F 38.7 °F 30.3 in Calm     98% 0 in
05:54 39 °F 38.5 °F 30.3 in Calm     98% 0 in
05:59 38.8 °F 38.5 °F 30.3 in Calm     98% 0 in
06:04 38.7 °F 38.1 °F 30.3 in Calm     98% 0 in
06:09 38.5 °F 37.9 °F 30.3 in Calm     98% 0 in
06:14 38.5 °F 37.8 °F 30.3 in Calm     98% 0 in
06:19 38.1 °F 37.8 °F 30.3 in Calm     98% 0 in
06:24 37.9 °F 37.6 °F 30.3 in Calm     98% 0 in
06:29 37.8 °F 37.2 °F 30.3 in Calm     98% 0 in
06:34 37.6 °F 37 °F 30.3 in Calm     98% 0 in
06:39 37.6 °F 37 °F 30.3 in Calm     98% 0 in
06:49 37 °F 36.7 °F 30.3 in Calm     98% 0 in
06:54 36.9 °F 36.3 °F 30.3 in Calm     98% 0 in
06:59 37.2 °F 36.9 °F 30.3 in Calm     98% 0 in
07:04 37.8 °F 37.2 °F 30.3 in ENE 2.2 mph 2.5 mph 98% 0 in
07:09 38.1 °F 37.8 °F 30.3 in Calm   2.9 mph 98% 0 in
07:14 38.1 °F 37.8 °F 30.3 in Calm   2.9 mph 98% 0 in
07:19 38.1 °F 37.8 °F 30.3 in Calm     98% 0 in
07:24 38.1 °F 37.8 °F 30.3 in Calm     98% 0 in
07:29 38.5 °F 37.8 °F 30.3 in Calm     98% 0 in
07:34 38.5 °F 37.9 °F 30.3 in Calm     98% 0 in
07:39 38.7 °F 38.1 °F 30.3 in Calm     98% 0 in
07:44 38.8 °F 38.5 °F 30.3 in Calm     98% 0 in
07:49 39.2 °F 38.7 °F 30.3 in Calm     98% 0 in
07:54 39.7 °F 39.2 °F 30.3 in Calm     98% 0 in
08:00 40.3 °F 39.7 °F 30.3 in Calm     98% 0 in
08:05 40.6 °F 40.1 °F 30.3 in Calm   0.9 mph 98% 0 in
08:10 41.2 °F 40.6 °F 30.3 in Calm   0.9 mph 98% 0 in
08:15 42.1 °F 41.5 °F 30.3 in Calm     98% 0 in
08:20 43 °F 42.4 °F 30.3 in Calm     98% 0 in
08:25 43.9 °F 43.3 °F 30.3 in Calm     98% 0 in
08:30 44.2 °F 43.9 °F 30.3 in Calm     98% 0 in
08:35 45.1 °F 44.4 °F 30.3 in Calm     98% 0 in
08:40 46.2 °F 45.9 °F 30.3 in Calm     98% 0 in
08:45 46.8 °F 46.2 °F 30.3 in Calm     98% 0 in
08:50 47.5 °F 46.9 °F 30.3 in SSE 0.9 mph 0.9 mph 98% 0 in
08:52 47.7 °F 47.1 °F 30.3 in SSW 2 mph 2 mph 98% 0 in
08:57 47.8 °F 47.3 °F 30.3 in South 2.2 mph 2.9 mph 98% 0 in
09:02 48.4 °F 47.8 °F 30.3 in South 1.3 mph 3.8 mph 98% 0 in
09:03 48.4 °F 47.8 °F 30.3 in South 2.7 mph 3.8 mph 98% 0 in
09:08 48.7 °F 48.2 °F 30.3 in South 2 mph 3.8 mph 98% 0 in
09:13 49.1 °F 48.6 °F 30.3 in South 2 mph 3.1 mph 98% 0 in
09:18 49.6 °F 49.1 °F 30.3 in South 2.2 mph 3.1 mph 98% 0 in
09:23 50.2 °F 49.6 °F 30.3 in South 3.6 mph 3.6 mph 98% 0 in
09:28 50.7 °F 49.8 °F 30.3 in South 2.9 mph 3.6 mph 97% 0 in
09:33 51.3 °F 50.4 °F 30.3 in SSE 2.5 mph 3.6 mph 97% 0 in
09:38 52.2 °F 51.3 °F 30.2 in SSW 1.6 mph 3.4 mph 97% 0 in
09:43 52.9 °F 52 °F 30.2 in SW 2.9 mph 3.4 mph 97% 0 in
09:48 53.4 °F 52.3 °F 30.2 in SSW 2.7 mph 3.4 mph 96% 0 in
09:53 54 °F 52.9 °F 30.3 in SW 2.5 mph 3.1 mph 96% 0 in
09:58 54.9 °F 53.6 °F 30.3 in SSW 2.7 mph 4 mph 96% 0 in
10:03 55 °F 53.8 °F 30.3 in SSW 3.4 mph 4 mph 95% 0 in
10:08 55.8 °F 54.3 °F 30.3 in SSW 2 mph 3.6 mph 95% 0 in
10:13 56.5 °F 54.9 °F 30.3 in SSW 2.5 mph 4 mph 94% 0 in
10:18 57.4 °F 55.4 °F 30.3 in SSW 3.4 mph 4 mph 93% 0 in
10:23 57.9 °F 55.6 °F 30.3 in SSW 2.5 mph 3.8 mph 92% 0 in
10:28 58.6 °F 55.8 °F 30.3 in South 2.7 mph 3.8 mph 90% 0 in
10:33 59.2 °F 55.9 °F 30.3 in WSW 3.8 mph 4 mph 89% 0 in
10:38 59.5 °F 55.2 °F 30.3 in SW 3.4 mph 5.8 mph 86% 0 in
10:43 59.7 °F 53.4 °F 30.3 in South 6.3 mph 7.8 mph 80% 0 in
10:48 59.7 °F 51.8 °F 30.3 in South 6.5 mph 7.8 mph 75% 0 in
10:53 60.1 °F 52.2 °F 30.3 in South 4.9 mph 7.4 mph 75% 0 in
10:58 60.6 °F 52 °F 30.3 in SSW 4.9 mph 6.5 mph 73% 0 in
11:03 60.8 °F 51.6 °F 30.3 in SW 5.6 mph 7.2 mph 72% 0 in
11:08 61.3 °F 52.2 °F 30.3 in SW 4 mph 7.2 mph 72% 0 in
11:13 61.5 °F 52.2 °F 30.3 in WSW 4.9 mph 6.5 mph 71% 0 in
11:18 62.1 °F 52.2 °F 30.3 in South 3.1 mph 6.5 mph 70% 0 in
11:24 62.2 °F 52.3 °F 30.2 in WSW 3.6 mph 6.5 mph 70% 0 in
11:29 63 °F 52.5 °F 30.2 in SSW 2.7 mph 6.3 mph 69% 0 in
11:34 63 °F 52 °F 30.2 in SSW 3.6 mph 5.8 mph 67% 0 in
11:39 63.3 °F 52.2 °F 30.2 in WSW 4 mph 5.4 mph 67% 0 in
11:44 63.9 °F 52.3 °F 30.2 in SSE 5.8 mph 6.5 mph 66% 0 in
11:49 64 °F 51.6 °F 30.2 in SW 5.4 mph 6.5 mph 64% 0 in
11:54 64.6 °F 52 °F 30.2 in SW 3.8 mph 6.5 mph 64% 0 in
11:59 64.6 °F 51.1 °F 30.2 in SSW 6.5 mph 8.1 mph 62% 0 in
12:04 64.2 °F 49.6 °F 30.2 in SSW 4.9 mph 8.5 mph 59% 0 in
12:09 64.6 °F 49.8 °F 30.2 in South 4.3 mph 8.5 mph 59% 0 in
12:14 64.8 °F 49.6 °F 30.2 in SW 5.6 mph 7.6 mph 58% 0 in
12:19 64.6 °F 48.4 °F 30.2 in SW 5.4 mph 7.6 mph 56% 0 in
12:24 64.8 °F 49.3 °F 30.2 in SSW 5.8 mph 7.6 mph 57% 0 in
12:29 64.8 °F 48.4 °F 30.2 in SSW 6.3 mph 7.8 mph 55% 0 in
12:34 64.9 °F 48.9 °F 30.2 in SSE 5.6 mph 7.8 mph 56% 0 in
12:39 65.3 °F 48.7 °F 30.2 in South 5.8 mph 8.5 mph 55% 0 in
12:44 65.3 °F 48.4 °F 30.2 in WSW 5.4 mph 10.5 mph 54% 0 in
12:49 66 °F 49.5 °F 30.2 in SE 5.6 mph 10.5 mph 55% 0 in
12:54 66.2 °F 48.6 °F 30.2 in SSE 7.6 mph 9.2 mph 53% 0 in
12:59 65.8 °F 47.1 °F 30.2 in SSW 5.6 mph 11 mph 51% 0 in
13:04 66.2 °F 48 °F 30.2 in South 4.9 mph 11 mph 52% 0 in
13:09 66.6 °F 48.9 °F 30.2 in SW 4 mph 7.6 mph 53% 0 in
13:14 66.6 °F 48.4 °F 30.2 in South 6.5 mph 8.5 mph 52% 0 in
13:19 66.6 °F 47.8 °F 30.2 in South 4.9 mph 11.9 mph 51% 0 in
13:24 66.4 °F 47.1 °F 30.2 in SSW 7.4 mph 11.9 mph 50% 0 in
13:29 66.6 °F 47.3 °F 30.2 in South 6 mph 10.1 mph 50% 0 in
13:34 66.7 °F 47.5 °F 30.2 in South 6.3 mph 8.7 mph 50% 0 in
13:39 67.1 °F 47.8 °F 30.2 in SSW 5.8 mph 8.7 mph 50% 0 in
13:44 66.9 °F 47.7 °F 30.2 in SSE 7.4 mph 7.8 mph 50% 0 in
13:49 66.9 °F 47.7 °F 30.2 in South 7.6 mph 8.7 mph 50% 0 in
13:54 66.9 °F 47.1 °F 30.2 in SSE 4.3 mph 8.7 mph 49% 0 in
13:59 66.9 °F 47.1 °F 30.2 in SE 6.5 mph 8.5 mph 49% 0 in
14:04 66.9 °F 47.1 °F 30.2 in South 7.6 mph 10.5 mph 49% 0 in
14:09 66.7 °F 46.9 °F 30.2 in SSE 7.6 mph 10.5 mph 49% 0 in
14:14 66.9 °F 47.1 °F 30.2 in SSE 4.3 mph 10.1 mph 49% 0 in
14:19 66.7 °F 46.9 °F 30.2 in South 6 mph 10.1 mph 49% 0 in
14:24 66.9 °F 47.1 °F 30.1 in South 8.5 mph 11.2 mph 49% 0 in
14:29 66.9 °F 46.6 °F 30.1 in SSE 6.5 mph 11.2 mph 48% 0 in
14:34 66.9 °F 46.6 °F 30.1 in SSE 4.3 mph 10.1 mph 48% 0 in
14:39 66.9 °F 47.1 °F 30.2 in South 5.4 mph 10.7 mph 49% 0 in
14:44 67.1 °F 47.3 °F 30.2 in SW 9.6 mph 11 mph 49% 0 in
14:49 67.1 °F 46.8 °F 30.2 in SSW 5.8 mph 11 mph 48% 0 in
14:54 67.1 °F 46.8 °F 30.2 in South 7.6 mph 8.7 mph 48% 0 in
14:59 66.9 °F 46.6 °F 30.2 in SSW 3.4 mph 12.3 mph 48% 0 in
15:04 67.3 °F 46.9 °F 30.2 in South 7.8 mph 12.3 mph 48% 0 in
15:09 67.3 °F 46.4 °F 30.2 in SSW 5.4 mph 10.3 mph 47% 0 in
15:14 67.5 °F 47.1 °F 30.2 in South 3.4 mph 10.3 mph 48% 0 in
15:19 67.6 °F 47.1 °F 30.2 in WSW 5.4 mph 6.5 mph 48% 0 in
15:24 67.6 °F 47.1 °F 30.1 in WSW 6.5 mph 8.5 mph 48% 0 in
15:29 67.5 °F 46.6 °F 30.1 in SSW 7.8 mph 8.5 mph 47% 0 in
15:34 67.3 °F 46.4 °F 30.1 in South 5.6 mph 8.7 mph 47% 0 in
15:39 67.3 °F 46.4 °F 30.1 in SSW 7.6 mph 10.1 mph 47% 0 in
15:44 67.1 °F 46.2 °F 30.1 in South 7.6 mph 10.1 mph 47% 0 in
15:49 66.9 °F 46 °F 30.1 in SW 5.4 mph 9.8 mph 47% 0 in
15:54 67.1 °F 46.2 °F 30.1 in South 6.5 mph 7.6 mph 47% 0 in
15:59 66.7 °F 45.9 °F 30.1 in SSW 6.7 mph 9.2 mph 47% 0 in
16:04 66.7 °F 45.9 °F 30.1 in SSE 5.4 mph 9.2 mph 47% 0 in
16:05 66.9 °F 46 °F 30.1 in SW 2.5 mph 9.2 mph 47% 0 in
16:10 66.9 °F 46.6 °F 30.1 in SSW 6.5 mph 10.1 mph 48% 0 in
16:15 66.6 °F 45.7 °F 30.1 in SSW 8.1 mph 11 mph 47% 0 in
16:20 66.4 °F 45.5 °F 30.1 in South 3.1 mph 11 mph 47% 0 in
16:25 66.4 °F 45.5 °F 30.1 in South 6.3 mph 9.8 mph 47% 0 in
16:30 66.2 °F 45.3 °F 30.1 in SW 3.6 mph 9.8 mph 47% 0 in
16:35 66.2 °F 45.9 °F 30.1 in SSW 5.6 mph 10.1 mph 48% 0 in
16:40 66 °F 45.9 °F 30.1 in South 2.9 mph 10.1 mph 48% 0 in
16:45 65.8 °F 45.1 °F 30.1 in South 4 mph 9.4 mph 47% 0 in
16:50 65.7 °F 45.5 °F 30.1 in South 5.4 mph 10.3 mph 48% 0 in
16:55 65.5 °F 45.3 °F 30.1 in South 3.4 mph 10.3 mph 48% 0 in
17:00 65.5 °F 45.3 °F 30.1 in WSW 8.1 mph 8.5 mph 48% 0 in
17:05 65.5 °F 45.3 °F 30.1 in SSW 7.4 mph 8.7 mph 48% 0 in
17:10 65.5 °F 45.9 °F 30.1 in WSW 3.8 mph 8.7 mph 49% 0 in
17:15 65.5 °F 45.9 °F 30.1 in SW 5.4 mph 10.1 mph 49% 0 in
17:20 65.3 °F 45.7 °F 30.1 in SW 7.6 mph 10.1 mph 49% 0 in
17:25 64.9 °F 45.3 °F 30.1 in SW 7.4 mph 10.7 mph 49% 0 in
17:30 64.6 °F 45 °F 30.1 in WSW 7.8 mph 12.3 mph 49% 0 in
17:35 64.6 °F 45 °F 30.1 in WSW 5.6 mph 12.3 mph 49% 0 in
17:40 64.2 °F 45.1 °F 30.1 in SW 10.1 mph 10.1 mph 50% 0 in
17:46 63.9 °F 45 °F 30.1 in SW 5.6 mph 10.3 mph 50% 0 in
17:51 63.7 °F 45.1 °F 30.1 in SW 8.1 mph 10.3 mph 51% 0 in
17:56 63.1 °F 45.3 °F 30.1 in SW 5.6 mph 8.7 mph 52% 0 in
18:01 62.8 °F 45.3 °F 30.1 in SW 6 mph 8.1 mph 53% 0 in
18:06 62.2 °F 45.3 °F 30.1 in SSW 3.8 mph 8.1 mph 54% 0 in
18:11 61.9 °F 45.5 °F 30.1 in SW 3.6 mph 6.7 mph 55% 0 in
18:16 61.5 °F 45.7 °F 30.1 in SSW 6 mph 7.6 mph 56% 0 in
18:21 61.3 °F 45.9 °F 30.1 in WSW 4.9 mph 7.8 mph 57% 0 in
18:26 61 °F 45.7 °F 30.1 in WSW 4.9 mph 7.8 mph 57% 0 in
18:31 60.6 °F 45.7 °F 30.1 in Calm   7.8 mph 58% 0 in
18:36 60.1 °F 45.7 °F 30.1 in Calm   4.7 mph 59% 0 in
18:41 59.7 °F 45.3 °F 30.1 in SSW 3.8 mph 3.8 mph 59% 0 in
18:46 59.2 °F 45.3 °F 30.1 in SSW 1.1 mph 3.8 mph 60% 0 in
18:47 59 °F 45.1 °F 30.1 in Calm   3.8 mph 60% 0 in
18:52 58.5 °F 45.1 °F 30.1 in Calm   3.1 mph 61% 0 in
18:57 57.9 °F 45.3 °F 30.1 in Calm   3.4 mph 63% 0 in
19:02 57.2 °F 45.1 °F 30.1 in Calm   3.4 mph 64% 0 in
19:07 56.7 °F 45.1 °F 30.1 in Calm     65% 0 in
19:12 56.1 °F 45 °F 30 in Calm     66% 0 in
19:17 55.6 °F 44.8 °F 30 in Calm     67% 0 in
19:22 55 °F 44.8 °F 30 in Calm     68% 0 in
19:27 54.9 °F 44.8 °F 30 in Calm     69% 0 in
19:32 54.3 °F 44.8 °F 30 in Calm   0.9 mph 70% 0 in
19:37 54 °F 44.4 °F 30 in Calm   0.9 mph 70% 0 in
19:42 53.8 °F 44.4 °F 30 in Calm   0.9 mph 71% 0 in
19:47 53.2 °F 44.4 °F 30 in Calm     72% 0 in
19:52 53.2 °F 44.8 °F 30 in Calm     73% 0 in
19:57 53.4 °F 45.1 °F 30 in Calm   3.6 mph 73% 0 in
20:02 54 °F 45.9 °F 30 in West 3.8 mph 4.3 mph 74% 0 in
20:07 54 °F 45.9 °F 30 in Calm   4.3 mph 74% 0 in
20:12 53.2 °F 45 °F 30 in Calm   3.1 mph 73% 0 in
20:17 52.9 °F 44.8 °F 30 in Calm   0.9 mph 74% 0 in
20:22 52.3 °F 44.2 °F 30.1 in Calm   2.2 mph 74% 0 in
20:27 51.8 °F 44.1 °F 30.1 in Calm   2.2 mph 75% 0 in
20:29 51.8 °F 44.1 °F 30.1 in WNW 1.6 mph 2.2 mph 75% 0 in
20:34 51.8 °F 44.4 °F 30.1 in Calm   2.7 mph 76% 0 in
20:39 51.4 °F 44.1 °F 30 in Calm   2.7 mph 76% 0 in
20:44 50.9 °F 43.9 °F 30 in Calm   2.5 mph 77% 0 in
20:49 50.4 °F 43.3 °F 30 in Calm     77% 0 in
20:54 50 °F 43.3 °F 30 in Calm     78% 0 in
20:59 49.6 °F 43.3 °F 30 in Calm     79% 0 in
21:04 49.5 °F 43.5 °F 30 in Calm     80% 0 in
21:09 49.3 °F 43.3 °F 30 in Calm     80% 0 in
21:14 48.9 °F 43.3 °F 30 in Calm     81% 0 in
21:19 48.7 °F 43.5 °F 30 in Calm     82% 0 in
21:24 48.4 °F 43.2 °F 30.1 in Calm     82% 0 in
21:29 48.2 °F 43.3 °F 30.1 in Calm   0.9 mph 83% 0 in
21:34 48.4 °F 43.9 °F 30.1 in Calm   2 mph 84% 0 in
21:39 48.4 °F 43.9 °F 30.1 in WNW 1.1 mph 2 mph 84% 0 in
21:44 48 °F 43.3 °F 30.1 in Calm   2 mph 84% 0 in
21:49 48.2 °F 43.9 °F 30.1 in Calm   2.9 mph 85% 0 in
21:54 48.2 °F 43.9 °F 30.1 in West 2.9 mph 2.9 mph 85% 0 in
21:59 48 °F 44.1 °F 30.1 in Calm   2.9 mph 86% 0 in
22:04 47.8 °F 43.9 °F 30.1 in West 2 mph 4.3 mph 86% 0 in
22:09 47.5 °F 43.5 °F 30.1 in West 2.7 mph 4.7 mph 86% 0 in
22:14 47.5 °F 43.5 °F 30.1 in West 3.8 mph 4.7 mph 86% 0 in
22:19 47.8 °F 43.9 °F 30.1 in WNW 3.1 mph 4.7 mph 86% 0 in
22:24 48.6 °F 45.5 °F 30.1 in WNW 3.8 mph 6.9 mph 89% 0 in
22:29 49.3 °F 46.6 °F 30.1 in West 4.9 mph 7.8 mph 90% 0 in
22:35 49.8 °F 46.8 °F 30.1 in West 2.9 mph 7.8 mph 89% 0 in
22:39 49.8 °F 46.4 °F 30.1 in West 3.6 mph 5.6 mph 88% 0 in
22:44 49.5 °F 46 °F 30.1 in West 1.6 mph 4.3 mph 88% 0 in
22:49 49.1 °F 45.1 °F 30.1 in West 2.5 mph 4.3 mph 86% 0 in
22:55 48.6 °F 44.6 °F 30.1 in West 4 mph 4 mph 86% 0 in
23:00 48.6 °F 44.6 °F 30.1 in West 3.4 mph 4.9 mph 86% 0 in
23:05 48.2 °F 44.2 °F 30.1 in WSW 2.9 mph 4.9 mph 86% 0 in
23:10 47.8 °F 43.9 °F 30 in WSW 2.5 mph 4.3 mph 86% 0 in
23:15 47.5 °F 43.5 °F 30 in West 4 mph 4.3 mph 86% 0 in
23:20 47.5 °F 43.5 °F 30 in WSW 4 mph 4.7 mph 86% 0 in
23:25 47.3 °F 43.7 °F 30.1 in WSW 4.7 mph 4.7 mph 87% 0 in
23:30 47.3 °F 43.7 °F 30.1 in West 5.6 mph 5.6 mph 87% 0 in
23:35 47.5 °F 44.1 °F 30.1 in WSW 4.3 mph 6.7 mph 88% 0 in
23:40 47.5 °F 44.4 °F 30.1 in West 4.3 mph 6.7 mph 89% 0 in
23:45 47.3 °F 44.2 °F 30.1 in WSW 5.4 mph 5.8 mph 89% 0 in
23:50 47.1 °F 44.1 °F 30.1 in West 4.3 mph 5.8 mph 89% 0 in
23:55 46.9 °F 43.9 °F 30 in West 5.6 mph 7.2 mph 89% 0 in
Données Historique de Météo Turbie

Mise a jour : 18/06/2018 21:18:13
Généré par Cumulus 1.9.4 (1099)